Time;durP1;ratioP1;P1;durP2;ratioP2;P2;SDS_P1;SDS_P2;PMS_P1;PMS_P2;Temp;Humidity;BMP_temperature;BMP_pressure;BME280_temperature;BME280_humidity;BME280_pressure;Samples;Min_cycle;Max_cycle;Signal;HPM_P1;HPM_P2
2022/01/29 00:00:05;;;;;;;78.68;32.08;;;7.10;99.90;;;;;;5112074;28;20038;-90
2022/01/29 00:02:30;;;;;;;79.50;30.75;;;7.10;99.90;;;;;;5093179;28;20047;-90
2022/01/29 00:04:56;;;;;;;74.10;34.63;;;7.20;99.90;;;;;;5069341;28;20409;-89
2022/01/29 00:07:21;;;;;;;77.53;33.38;;;7.10;99.90;;;;;;5072000;28;20524;-90
2022/01/29 00:09:48;;;;;;;69.40;31.98;;;7.20;99.90;;;;;;5081409;28;20520;-90
2022/01/29 00:12:14;;;;;;;69.93;32.63;;;7.10;99.90;;;;;;5082382;27;20043;-89
2022/01/29 00:14:39;;;;;;;77.63;33.17;;;7.20;99.90;;;;;;5077388;28;20058;-89
2022/01/29 00:17:05;;;;;;;82.55;35.75;;;7.20;99.90;;;;;;5098691;28;20036;-89
2022/01/29 00:19:31;;;;;;;78.32;34.33;;;7.20;99.90;;;;;;5074326;28;20119;-89
2022/01/29 00:21:58;;;;;;;72.15;31.88;;;7.20;99.90;;;;;;5057056;28;20044;-88
2022/01/29 00:24:24;;;;;;;77.95;36.70;;;7.20;99.90;;;;;;5057484;28;20036;-89
2022/01/29 00:26:51;;;;;;;92.38;39.13;;;7.20;99.90;;;;;;5072970;28;20502;-89
2022/01/29 00:29:20;;;;;;;86.65;39.60;;;7.10;99.90;;;;;;5094312;28;20061;-89
2022/01/29 00:31:46;;;;;;;91.22;39.47;;;7.00;99.90;;;;;;5089467;28;20050;-89
2022/01/29 00:34:12;;;;;;;81.70;35.35;;;7.10;99.90;;;;;;5077451;28;20698;-88
2022/01/29 00:36:38;;;;;;;92.70;36.08;;;7.10;99.90;;;;;;5076791;28;20103;-88
2022/01/29 00:39:04;;;;;;;90.03;40.60;;;7.10;99.90;;;;;;5077026;28;20039;-90
2022/01/29 00:41:29;;;;;;;83.85;36.78;;;7.10;99.90;;;;;;5094069;28;20088;-90
2022/01/29 00:43:55;;;;;;;81.85;37.35;;;7.10;99.90;;;;;;5086591;28;20036;-90
2022/01/29 00:46:20;;;;;;;87.43;39.13;;;7.10;99.90;;;;;;5059088;28;20085;-89
2022/01/29 00:48:46;;;;;;;84.90;38.53;;;7.00;99.90;;;;;;5092377;28;20053;-90
2022/01/29 00:51:11;;;;;;;85.55;38.50;;;7.10;99.90;;;;;;5054639;28;20044;-89
2022/01/29 00:53:37;;;;;;;81.90;38.03;;;7.00;99.90;;;;;;5072888;28;20130;-89
2022/01/29 00:56:07;;;;;;;81.03;33.90;;;7.10;99.90;;;;;;5073498;28;20139;-88
2022/01/29 00:58:33;;;;;;;89.38;38.85;;;7.10;99.90;;;;;;5073607;28;20047;-89
2022/01/29 01:01:00;;;;;;;80.13;37.22;;;7.10;99.90;;;;;;5073692;28;20048;-89
2022/01/29 01:03:25;;;;;;;80.85;34.28;;;7.10;99.90;;;;;;5073655;28;20093;-89
2022/01/29 01:05:51;;;;;;;83.68;35.67;;;7.00;99.90;;;;;;5073557;28;20039;-90
2022/01/29 01:08:16;;;;;;;88.28;37.70;;;7.00;99.90;;;;;;5073262;28;20131;-90
2022/01/29 01:10:42;;;;;;;74.20;35.20;;;7.00;99.90;;;;;;5073094;28;20044;-89
2022/01/29 01:13:08;;;;;;;79.65;36.83;;;7.10;99.90;;;;;;5073595;28;20379;-89
2022/01/29 01:15:33;;;;;;;86.05;37.17;;;7.00;99.90;;;;;;5073032;28;20044;-89
2022/01/29 01:17:59;;;;;;;78.07;33.97;;;7.00;99.90;;;;;;5064760;28;20071;-89
2022/01/29 01:20:25;;;;;;;76.47;34.53;;;7.10;99.90;;;;;;5071270;28;20079;-89
2022/01/29 01:22:50;;;;;;;71.95;35.13;;;7.10;99.90;;;;;;5071848;28;20046;-89
2022/01/29 01:25:16;;;;;;;71.38;30.98;;;7.20;99.90;;;;;;5052711;28;20043;-89
2022/01/29 01:27:41;;;;;;;71.28;32.88;;;7.20;99.90;;;;;;5052632;28;20135;-89
2022/01/29 01:30:08;;;;;;;77.68;34.70;;;7.20;99.90;;;;;;5066192;28;20032;-89
2022/01/29 01:32:34;;;;;;;80.30;36.70;;;7.10;99.90;;;;;;5072530;28;20044;-89
2022/01/29 01:35:10;;;;;;;69.38;33.80;;;7.10;99.90;;;;;;5072551;28;20036;-88
2022/01/29 01:38:04;;;;;;;74.45;33.63;;;7.20;99.90;;;;;;5089328;28;20044;-88
2022/01/29 01:40:23;;;;;;;73.50;32.13;;;7.10;99.90;;;;;;5088701;28;20523;-90
2022/01/29 01:42:48;;;;;;;60.28;28.27;;;7.20;99.90;;;;;;5072104;28;20070;-89
2022/01/29 01:45:14;;;;;;;67.53;31.13;;;7.20;99.90;;;;;;5072156;28;20485;-89
2022/01/29 01:47:40;;;;;;;74.40;33.35;;;7.30;99.90;;;;;;5072052;28;20548;-88
2022/01/29 01:50:08;;;;;;;69.47;33.92;;;7.20;99.90;;;;;;5072474;28;20040;-90
2022/01/29 01:52:33;;;;;;;60.80;28.05;;;7.20;99.90;;;;;;5071797;28;20051;-89
2022/01/29 01:54:59;;;;;;;67.07;29.80;;;7.20;99.90;;;;;;5072128;28;20040;-88
2022/01/29 01:57:24;;;;;;;70.90;33.58;;;7.20;99.90;;;;;;5072477;28;20093;-89
2022/01/29 01:59:51;;;;;;;69.50;30.38;;;7.20;99.90;;;;;;5071960;28;20062;-89
2022/01/29 02:02:18;;;;;;;79.35;33.13;;;7.20;99.90;;;;;;5072613;28;20044;-90
2022/01/29 02:04:43;;;;;;;63.35;30.92;;;7.20;99.90;;;;;;5072101;28;20040;-92
2022/01/29 02:07:09;;;;;;;72.55;30.83;;;7.30;99.90;;;;;;5067068;28;20037;-91
2022/01/29 02:09:37;;;;;;;64.80;28.63;;;7.30;99.90;;;;;;5052056;28;20505;-91
2022/01/29 02:12:04;;;;;;;76.53;30.15;;;7.30;99.90;;;;;;5052100;28;20055;-92
2022/01/29 02:14:32;;;;;;;73.43;33.33;;;7.30;99.90;;;;;;5052061;28;20052;-91
2022/01/29 02:17:04;;;;;;;75.25;33.72;;;7.30;99.90;;;;;;5054019;28;20127;-92
2022/01/29 02:19:30;;;;;;;74.50;33.05;;;7.30;99.90;;;;;;5072234;28;20044;-91
2022/01/29 02:21:56;;;;;;;78.57;34.20;;;7.30;99.90;;;;;;5071485;28;20417;-90
2022/01/29 02:24:22;;;;;;;72.95;32.00;;;7.30;99.90;;;;;;5089051;28;20040;-90
2022/01/29 02:26:48;;;;;;;77.68;33.20;;;7.30;99.90;;;;;;5071726;28;20040;-90
2022/01/29 02:29:14;;;;;;;84.22;33.13;;;7.30;99.90;;;;;;5088969;28;20035;-89
2022/01/29 02:31:58;;;;;;;83.00;36.38;;;7.30;99.90;;;;;;5071849;28;20075;-89
2022/01/29 02:34:24;;;;;;;;;;;7.30;99.90;;;;;;5072388;28;20055;-89
2022/01/29 02:36:54;;;;;;;71.05;32.05;;;7.30;99.90;;;;;;5071350;28;19920;-89
2022/01/29 02:39:21;;;;;;;80.03;33.17;;;7.30;99.90;;;;;;5071932;28;20040;-89
2022/01/29 02:41:47;;;;;;;80.82;32.67;;;7.40;99.90;;;;;;5071592;28;20465;-90
2022/01/29 02:44:17;;;;;;;78.05;33.97;;;7.40;99.90;;;;;;5071842;28;20126;-90
2022/01/29 02:46:57;;;;;;;68.72;29.38;;;7.40;99.90;;;;;;5071358;28;20571;-90
2022/01/29 02:49:25;;;;;;;76.18;32.45;;;7.40;99.90;;;;;;5088209;28;20064;-89
2022/01/29 02:51:56;;;;;;;72.78;29.95;;;7.40;99.90;;;;;;5088294;28;20047;-89
2022/01/29 02:54:23;;;;;;;82.43;31.77;;;7.50;99.90;;;;;;5088354;28;20048;-89
2022/01/29 02:56:49;;;;;;;69.85;28.80;;;7.50;99.90;;;;;;5071503;28;20040;-89
2022/01/29 02:59:15;;;;;;;84.18;33.10;;;7.50;99.90;;;;;;5088695;28;20044;-89
2022/01/29 03:01:41;;;;;;;76.13;31.52;;;7.50;99.90;;;;;;5071766;28;20105;-89
2022/01/29 03:04:06;;;;;;;71.65;31.42;;;7.50;99.90;;;;;;5087453;28;20084;-89
2022/01/29 03:06:33;;;;;;;78.28;28.77;;;7.50;99.90;;;;;;5058899;28;20518;-90
2022/01/29 03:09:00;;;;;;;67.63;29.88;;;7.50;99.90;;;;;;5051906;28;20718;-90
2022/01/29 03:11:26;;;;;;;75.07;29.02;;;7.50;99.90;;;;;;5055277;28;20059;-89
2022/01/29 03:13:51;;;;;;;83.93;30.42;;;7.50;99.90;;;;;;5063672;28;20032;-90
2022/01/29 03:16:18;;;;;;;78.45;30.15;;;7.50;99.90;;;;;;5055851;28;20045;-90
2022/01/29 03:18:44;;;;;;;68.35;26.60;;;7.60;99.90;;;;;;5055538;28;20604;-91
2022/01/29 03:21:09;;;;;;;74.47;27.42;;;7.60;99.90;;;;;;5055204;28;20040;-90
2022/01/29 03:23:35;;;;;;;66.85;28.02;;;7.70;99.90;;;;;;5055096;28;20198;-90
2022/01/29 03:26:01;;;;;;;69.68;27.83;;;7.70;99.90;;;;;;5055391;28;20036;-90
2022/01/29 03:28:28;;;;;;;65.85;25.30;;;7.80;99.90;;;;;;5055152;28;20485;-90
2022/01/29 03:30:55;;;;;;;51.70;22.02;;;7.70;99.90;;;;;;5054752;28;20115;-90
2022/01/29 03:33:21;;;;;;;65.43;25.58;;;7.80;99.90;;;;;;5054967;28;20517;-90
2022/01/29 03:35:47;;;;;;;61.72;24.48;;;7.90;99.90;;;;;;5055040;28;20040;-90
2022/01/29 03:38:12;;;;;;;65.35;23.63;;;7.90;99.90;;;;;;5055222;28;20051;-90
2022/01/29 03:40:39;;;;;;;58.67;24.17;;;7.90;99.90;;;;;;5054846;28;20127;-90
2022/01/29 03:43:11;;;;;;;55.30;23.10;;;7.90;99.90;;;;;;5055229;28;20037;-89
2022/01/29 03:45:37;;;;;;;63.15;25.30;;;8.00;99.90;;;;;;5071600;28;20498;-91
2022/01/29 03:48:04;;;;;;;57.05;22.10;;;8.00;99.90;;;;;;5080290;28;20052;-91
2022/01/29 03:50:29;;;;;;;71.13;25.20;;;8.00;99.90;;;;;;5088762;28;20062;-90
2022/01/29 03:52:55;;;;;;;54.30;23.42;;;8.10;99.90;;;;;;5054430;28;20052;-90
2022/01/29 03:55:21;;;;;;;56.05;22.58;;;8.00;99.90;;;;;;5071576;28;20130;-91
2022/01/29 03:57:46;;;;;;;58.00;25.92;;;8.00;99.90;;;;;;5071464;28;20091;-91
2022/01/29 04:00:13;;;;;;;66.13;27.33;;;8.10;99.90;;;;;;5071461;28;20071;-90
2022/01/29 04:02:38;;;;;;;63.25;24.52;;;8.10;99.90;;;;;;5070979;28;20115;-91
2022/01/29 04:05:04;;;;;;;54.05;23.73;;;8.10;99.90;;;;;;5071322;28;20045;-90
2022/01/29 04:07:30;;;;;;;62.28;26.25;;;8.10;99.90;;;;;;5071281;28;20052;-91
2022/01/29 04:09:56;;;;;;;69.22;25.23;;;8.10;99.90;;;;;;5071138;28;20036;-91
2022/01/29 04:12:24;;;;;;;57.50;22.77;;;8.10;99.90;;;;;;5070926;28;20070;-90
2022/01/29 04:14:52;;;;;;;65.15;26.05;;;8.20;99.90;;;;;;5070158;28;20041;-90
2022/01/29 04:17:17;;;;;;;53.50;22.42;;;8.20;99.90;;;;;;5063411;28;20072;-90
2022/01/29 04:19:43;;;;;;;73.32;27.33;;;8.20;99.90;;;;;;5067489;28;20091;-91
2022/01/29 04:22:08;;;;;;;61.40;25.58;;;8.10;99.90;;;;;;5050245;28;20127;-90
2022/01/29 04:24:34;;;;;;;60.05;24.95;;;8.10;99.90;;;;;;5067211;28;20665;-90
2022/01/29 04:27:03;;;;;;;61.95;25.95;;;8.20;99.90;;;;;;5067823;28;20044;-90
2022/01/29 04:29:37;;;;;;;59.08;23.88;;;8.20;99.90;;;;;;5050865;28;20040;-91
2022/01/29 04:32:11;;;;;;;62.83;25.88;;;8.20;99.90;;;;;;5050692;28;20065;-90
2022/01/29 04:34:37;;;;;;;62.67;22.00;;;8.20;99.90;;;;;;5050819;28;20407;-90
2022/01/29 04:37:03;;;;;;;60.42;24.50;;;8.20;99.90;;;;;;5070731;28;20043;-91
2022/01/29 04:39:28;;;;;;;61.70;26.08;;;8.20;99.90;;;;;;5054076;28;20102;-90
2022/01/29 04:41:54;;;;;;;65.30;24.67;;;8.20;99.90;;;;;;5053758;28;20048;-91
2022/01/29 04:44:19;;;;;;;57.53;23.13;;;8.20;99.90;;;;;;5053704;28;20079;-91
2022/01/29 04:46:45;;;;;;;67.65;25.75;;;8.20;99.90;;;;;;5060360;28;20041;-90
2022/01/29 04:49:11;;;;;;;58.60;24.65;;;8.20;99.90;;;;;;5082616;28;20099;-90
2022/01/29 04:51:36;;;;;;;51.05;21.52;;;8.30;99.90;;;;;;5073479;28;20042;-91
2022/01/29 04:54:02;;;;;;;64.78;24.52;;;8.30;99.90;;;;;;5073888;28;20051;-90
2022/01/29 04:56:27;;;;;;;55.00;21.30;;;8.30;99.90;;;;;;5073753;28;20075;-91
2022/01/29 04:58:53;;;;;;;59.65;25.02;;;8.30;99.90;;;;;;5073423;28;20575;-91
2022/01/29 05:01:18;;;;;;;56.78;24.73;;;8.30;99.90;;;;;;5107006;28;20470;-90
2022/01/29 05:03:44;;;;;;;50.08;23.67;;;8.40;99.90;;;;;;5073596;28;20528;-89
2022/01/29 05:06:12;;;;;;;51.75;22.98;;;8.40;99.90;;;;;;5090166;28;20047;-90
2022/01/29 05:08:38;;;;;;;49.70;22.67;;;8.40;99.90;;;;;;5073546;28;20040;-90
2022/01/29 05:11:04;;;;;;;59.53;24.63;;;8.40;99.90;;;;;;5073081;28;20069;-90
2022/01/29 05:13:31;;;;;;;54.13;22.75;;;8.40;99.90;;;;;;5072954;28;20740;-90
2022/01/29 05:16:22;;;;;;;49.83;21.48;;;8.30;99.90;;;;;;5072765;28;20114;-90
2022/01/29 05:27:01;;;;;;;48.15;21.27;;;8.40;99.90;;;;;;5089865;28;20097;-90
2022/01/29 05:29:30;;;;;;;53.85;24.95;;;8.40;99.90;;;;;;5072698;28;20067;-90
2022/01/29 05:31:57;;;;;;;54.20;24.35;;;8.40;99.90;;;;;;5072538;28;20485;-89
2022/01/29 05:34:22;;;;;;;46.83;22.10;;;8.40;99.90;;;;;;5072779;28;20040;-90
2022/01/29 05:36:49;;;;;;;55.88;25.13;;;8.40;99.90;;;;;;5072750;28;20106;-90
2022/01/29 05:39:15;;;;;;;56.97;26.38;;;8.40;99.90;;;;;;5072746;28;20081;-90
2022/01/29 05:41:40;;;;;;;47.22;23.90;;;8.40;99.90;;;;;;5072360;28;20112;-90
2022/01/29 05:44:06;;;;;;;56.38;21.50;;;8.40;99.90;;;;;;5072329;28;20541;-90
2022/01/29 05:46:31;;;;;;;49.63;25.02;;;8.40;99.90;;;;;;5072991;28;20040;-90
2022/01/29 05:48:57;;;;;;;52.67;22.90;;;8.50;99.90;;;;;;5089196;28;20043;-89
2022/01/29 05:51:23;;;;;;;58.72;24.88;;;8.50;99.90;;;;;;5092970;28;20047;-90
2022/01/29 05:53:48;;;;;;;56.10;26.58;;;8.50;99.90;;;;;;5090916;28;20096;-90
2022/01/29 05:56:14;;;;;;;46.60;22.90;;;8.50;99.90;;;;;;5109800;28;20532;-89
2022/01/29 05:58:40;;;;;;;51.05;23.92;;;8.50;99.90;;;;;;5084054;28;20436;-89
2022/01/29 06:01:05;;;;;;;49.03;21.52;;;8.50;99.90;;;;;;5072424;28;20467;-90
2022/01/29 06:03:31;;;;;;;51.97;23.15;;;8.60;99.90;;;;;;5072481;28;20093;-91
2022/01/29 06:05:57;;;;;;;45.63;21.85;;;8.60;99.90;;;;;;5072505;28;20082;-90
2022/01/29 06:08:22;;;;;;;53.60;23.98;;;8.60;99.90;;;;;;5072375;28;20038;-90
2022/01/29 06:10:48;;;;;;;54.80;22.88;;;8.60;99.90;;;;;;5071392;28;20104;-90
2022/01/29 06:13:15;;;;;;;53.13;22.10;;;8.50;99.90;;;;;;5063763;28;20490;-90
2022/01/29 06:15:49;;;;;;;48.53;23.13;;;8.60;99.90;;;;;;5059980;28;20128;-91
2022/01/29 06:18:19;;;;;;;38.47;19.02;;;8.60;99.90;;;;;;5071042;28;20076;-91
2022/01/29 06:20:47;;;;;;;46.15;22.58;;;8.60;99.90;;;;;;5091793;28;20031;-92
2022/01/29 06:23:14;;;;;;;49.95;22.17;;;8.60;99.90;;;;;;5092656;28;20046;-90
2022/01/29 06:25:40;;;;;;;40.65;21.75;;;8.60;99.90;;;;;;5079239;28;20501;-90
2022/01/29 06:28:06;;;;;;;42.92;19.90;;;8.70;99.90;;;;;;5071847;28;20040;-91
2022/01/29 06:30:31;;;;;;;50.65;22.75;;;8.70;99.90;;;;;;5071986;28;20042;-91
2022/01/29 06:33:06;;;;;;;40.80;19.00;;;8.60;99.90;;;;;;5071779;28;20043;-92
2022/01/29 06:35:31;;;;;;;41.88;19.35;;;8.70;99.90;;;;;;5071910;28;20036;-91
2022/01/29 06:37:57;;;;;;;38.97;16.95;;;8.70;99.90;;;;;;5071855;28;20048;-91
2022/01/29 06:40:23;;;;;;;41.40;18.55;;;8.70;99.90;;;;;;5087849;28;20071;-91
2022/01/29 06:42:48;;;;;;;39.30;17.38;;;8.70;99.90;;;;;;5089685;28;20044;-90
2022/01/29 06:45:14;;;;;;;34.72;16.85;;;8.80;99.90;;;;;;5085056;28;20032;-91
2022/01/29 06:47:39;;;;;;;32.72;16.70;;;8.80;99.90;;;;;;5070859;28;20051;-91
2022/01/29 06:50:05;;;;;;;35.78;17.50;;;8.80;99.90;;;;;;5085574;28;20048;-90
2022/01/29 06:52:31;;;;;;;42.28;17.60;;;8.80;99.90;;;;;;5083758;28;20048;-92
2022/01/29 06:54:56;;;;;;;43.65;20.48;;;8.90;99.90;;;;;;5068007;28;20494;-91
2022/01/29 06:57:22;;;;;;;42.13;20.05;;;8.80;99.90;;;;;;5065978;28;20106;-90
2022/01/29 06:59:47;;;;;;;34.88;14.38;;;8.80;99.90;;;;;;5080040;28;20045;-90
2022/01/29 07:02:13;;;;;;;30.67;16.83;;;8.90;99.90;;;;;;5058327;28;20078;-89
2022/01/29 07:04:38;;;;;;;33.78;15.77;;;8.90;99.90;;;;;;5076673;28;20132;-90
2022/01/29 07:07:04;;;;;;;39.60;17.88;;;8.90;99.90;;;;;;5061436;28;20037;-91
2022/01/29 07:09:30;;;;;;;35.88;16.48;;;8.90;99.90;;;;;;5063620;28;20489;-90
2022/01/29 07:11:59;;;;;;;31.40;16.60;;;8.90;99.90;;;;;;5070575;28;20039;-91
2022/01/29 07:14:25;;;;;;;31.17;13.88;;;8.90;99.90;;;;;;5070981;28;20032;-91
2022/01/29 07:16:51;;;;;;;32.35;15.18;;;8.90;99.90;;;;;;5067662;28;20048;-91
2022/01/29 07:19:16;;;;;;;50.22;18.60;;;8.90;99.90;;;;;;5067103;28;20043;-91
2022/01/29 07:21:42;;;;;;;36.83;17.05;;;8.90;99.90;;;;;;5064529;28;20044;-90
2022/01/29 07:24:07;;;;;;;35.85;16.48;;;8.90;99.90;;;;;;5052300;28;20043;-89
2022/01/29 07:26:33;;;;;;;32.10;16.67;;;9.00;99.90;;;;;;5061145;28;20036;-90
2022/01/29 07:28:59;;;;;;;33.75;16.08;;;9.00;99.90;;;;;;5087225;28;20044;-89
2022/01/29 07:31:24;;;;;;;37.60;17.08;;;8.90;99.90;;;;;;5057157;28;20259;-90
2022/01/29 07:33:50;;;;;;;40.60;17.05;;;8.90;99.90;;;;;;5077662;28;20036;-90
2022/01/29 07:36:16;;;;;;;32.08;16.52;;;9.00;99.90;;;;;;5052533;28;20043;-90
2022/01/29 07:38:41;;;;;;;38.67;18.00;;;9.00;99.90;;;;;;5068827;28;20447;-90
2022/01/29 07:41:07;;;;;;;31.92;14.82;;;8.90;99.90;;;;;;5065814;28;20055;-89
2022/01/29 07:43:32;;;;;;;38.63;16.48;;;8.90;99.90;;;;;;5072687;28;20039;-90
2022/01/29 07:45:58;;;;;;;39.95;18.67;;;8.90;99.90;;;;;;5055714;28;20036;-90
2022/01/29 07:48:24;;;;;;;43.10;18.27;;;8.90;99.90;;;;;;5054762;28;20049;-90
2022/01/29 07:50:50;;;;;;;35.92;17.30;;;8.80;99.90;;;;;;5062439;28;20052;-90
2022/01/29 07:53:16;;;;;;;35.15;18.05;;;8.90;99.90;;;;;;5060660;28;20040;-89
2022/01/29 07:55:42;;;;;;;31.95;15.90;;;8.90;99.90;;;;;;5064687;28;20040;-88
2022/01/29 07:58:07;;;;;;;27.50;14.27;;;8.90;99.90;;;;;;5082161;28;20036;-90
2022/01/29 08:00:33;;;;;;;32.90;16.20;;;9.00;99.90;;;;;;5067335;28;20032;-89
2022/01/29 08:02:59;;;;;;;38.72;16.02;;;9.00;99.90;;;;;;5066330;28;20150;-90
2022/01/29 08:05:25;;;;;;;28.38;14.60;;;9.00;99.90;;;;;;5080741;28;20048;-90
2022/01/29 08:07:50;;;;;;;35.30;16.38;;;9.00;99.90;;;;;;5061841;28;20032;-90
2022/01/29 08:10:16;;;;;;;34.65;16.92;;;9.00;99.90;;;;;;5061009;28;20099;-90
2022/01/29 08:12:41;;;;;;;30.67;13.95;;;9.00;99.90;;;;;;5060409;28;20105;-89
2022/01/29 08:15:08;;;;;;;29.38;14.25;;;8.90;99.90;;;;;;5070735;28;20050;-90
2022/01/29 08:17:33;;;;;;;37.15;16.58;;;9.00;99.90;;;;;;5062724;28;20040;-91
2022/01/29 08:19:59;;;;;;;31.77;12.82;;;9.00;99.90;;;;;;5064706;28;20612;-91
2022/01/29 08:22:25;;;;;;;30.33;14.73;;;9.10;99.90;;;;;;5068986;28;20737;-90
2022/01/29 08:24:52;;;;;;;31.65;13.40;;;9.10;99.90;;;;;;5072766;28;20041;-91
2022/01/29 08:27:18;;;;;;;31.05;12.55;;;9.00;99.90;;;;;;5073218;28;20044;-90
2022/01/29 08:29:44;;;;;;;30.38;13.25;;;9.10;99.90;;;;;;5070249;28;20553;-91
2022/01/29 08:32:09;;;;;;;25.88;12.18;;;9.10;99.90;;;;;;5064686;28;20127;-91
2022/01/29 08:34:35;;;;;;;19.17;10.20;;;9.10;99.90;;;;;;5062711;28;20040;-90
2022/01/29 08:37:03;;;;;;;24.98;11.82;;;9.20;99.90;;;;;;5055142;28;20032;-90
2022/01/29 08:39:29;;;;;;;25.65;11.65;;;9.20;99.90;;;;;;5074194;28;20051;-89
2022/01/29 08:41:55;;;;;;;21.33;10.27;;;9.20;99.90;;;;;;5065521;28;20041;-90
2022/01/29 08:44:21;;;;;;;18.33;9.98;;;9.20;99.90;;;;;;5062899;28;20032;-88
2022/01/29 08:46:46;;;;;;;18.33;8.77;;;9.30;99.90;;;;;;5067878;28;20069;-88
2022/01/29 08:49:12;;;;;;;17.50;9.13;;;9.30;99.90;;;;;;5064325;28;20185;-88
2022/01/29 08:51:37;;;;;;;19.33;10.50;;;9.30;99.90;;;;;;5061478;28;20083;-89
2022/01/29 08:54:03;;;;;;;19.00;9.15;;;9.40;99.90;;;;;;5067247;28;20501;-88
2022/01/29 08:56:29;;;;;;;20.55;9.48;;;9.40;99.90;;;;;;5061376;28;20059;-88
2022/01/29 08:58:55;;;;;;;21.40;9.43;;;9.40;99.90;;;;;;5068461;28;20032;-88
2022/01/29 09:01:21;;;;;;;22.60;9.15;;;9.40;99.90;;;;;;5071067;28;20562;-92
2022/01/29 09:03:47;;;;;;;20.50;9.02;;;9.50;99.90;;;;;;5070229;28;20040;-87
2022/01/29 09:06:13;;;;;;;22.38;9.02;;;9.50;99.90;;;;;;5056775;28;20454;-87
2022/01/29 09:08:40;;;;;;;25.00;9.95;;;9.50;99.90;;;;;;5083297;28;20586;-88
2022/01/29 09:11:06;;;;;;;23.80;9.55;;;9.60;99.90;;;;;;5090069;28;20040;-88
2022/01/29 09:13:32;;;;;;;19.10;9.00;;;9.60;99.90;;;;;;5073459;28;20089;-88
2022/01/29 09:15:58;;;;;;;21.65;9.57;;;9.50;99.90;;;;;;5083269;28;20040;-87
2022/01/29 09:18:24;;;;;;;20.08;10.40;;;9.70;99.90;;;;;;5073243;28;20041;-88
2022/01/29 09:20:50;;;;;;;25.90;10.52;;;9.60;99.90;;;;;;5067210;28;20044;-87
2022/01/29 09:23:16;;;;;;;15.88;9.10;;;9.60;99.90;;;;;;5073206;28;20040;-87
2022/01/29 09:25:42;;;;;;;22.13;8.98;;;9.70;99.90;;;;;;5064293;28;20040;-88
2022/01/29 09:28:09;;;;;;;24.08;10.20;;;9.70;99.90;;;;;;5052906;28;20040;-87
2022/01/29 09:30:35;;;;;;;21.70;8.65;;;9.70;99.90;;;;;;5058597;28;20202;-87
2022/01/29 09:33:01;;;;;;;20.23;9.65;;;9.80;99.90;;;;;;5072349;28;20126;-88
2022/01/29 09:35:27;;;;;;;18.15;8.90;;;9.80;99.90;;;;;;5072593;28;20048;-87
2022/01/29 09:37:54;;;;;;;21.70;9.68;;;9.80;99.90;;;;;;5072902;28;20087;-88
2022/01/29 09:40:20;;;;;;;22.77;9.43;;;9.80;99.90;;;;;;5068109;28;20040;-88
2022/01/29 09:42:51;;;;;;;22.23;10.57;;;9.90;99.90;;;;;;5075140;28;20123;-88
2022/01/29 09:45:23;;;;;;;19.25;9.32;;;9.90;99.90;;;;;;5084938;28;20147;-87
2022/01/29 09:47:49;;;;;;;18.42;10.13;;;10.00;99.90;;;;;;5079315;28;20383;-89
2022/01/29 09:50:16;;;;;;;20.98;9.13;;;10.00;99.90;;;;;;5079898;28;20082;-90
2022/01/29 09:52:42;;;;;;;18.02;8.02;;;10.00;99.90;;;;;;5072158;28;20651;-90
2022/01/29 09:55:09;;;;;;;17.25;7.75;;;10.10;99.90;;;;;;5074174;28;20032;-89
2022/01/29 09:57:35;;;;;;;18.83;8.23;;;10.10;99.90;;;;;;5063517;28;20410;-88
2022/01/29 10:00:01;;;;;;;14.55;8.13;;;10.10;99.90;;;;;;5074192;28;20066;-88
2022/01/29 10:02:27;;;;;;;20.00;8.23;;;10.00;99.90;;;;;;5072421;28;20040;-89
2022/01/29 10:04:55;;;;;;;15.93;6.90;;;10.10;99.90;;;;;;5072930;28;20047;-90
2022/01/29 10:07:25;;;;;;;13.43;6.50;;;10.10;99.90;;;;;;5087529;28;20136;-89
2022/01/29 10:09:51;;;;;;;14.25;7.03;;;10.20;99.90;;;;;;5085018;28;20688;-89
2022/01/29 10:12:26;;;;;;;14.13;6.72;;;10.20;99.90;;;;;;5073200;28;20067;-89
2022/01/29 10:14:58;;;;;;;15.10;7.63;;;10.20;99.90;;;;;;5082691;28;20489;-89
2022/01/29 10:17:42;;;;;;;13.32;7.35;;;10.20;99.90;;;;;;5086484;28;20044;-90
2022/01/29 10:20:13;;;;;;;;;;;10.20;99.90;;;;;;5079747;28;20085;-89
2022/01/29 10:22:39;;;;;;;14.32;6.45;;;10.20;99.90;;;;;;5071736;28;19927;-88
2022/01/29 10:25:26;;;;;;;12.40;5.85;;;10.20;99.90;;;;;;5089074;28;20040;-88
2022/01/29 10:28:11;;;;;;;15.25;6.28;;;10.30;99.90;;;;;;5068306;28;20040;-88
2022/01/29 10:30:55;;;;;;;10.50;5.32;;;10.30;99.90;;;;;;5052529;28;20040;-88
2022/01/29 10:33:30;;;;;;;11.50;4.38;;;10.30;99.90;;;;;;5068064;28;20159;-88
2022/01/29 10:35:59;;;;;;;20.30;5.45;;;10.30;99.90;;;;;;5051724;28;20047;-88
2022/01/29 10:38:30;;;;;;;13.25;5.53;;;10.30;99.90;;;;;;5090688;28;20040;-89
2022/01/29 10:41:30;;;;;;;8.88;4.80;;;10.30;99.90;;;;;;5051451;28;20041;-88
2022/01/29 10:44:17;;;;;;;12.55;5.50;;;10.30;99.90;;;;;;5056569;28;20689;-88
2022/01/29 10:46:54;;;;;;;16.17;6.88;;;10.40;99.90;;;;;;5071796;28;20089;-89
2022/01/29 10:49:29;;;;;;;16.13;6.35;;;10.40;99.90;;;;;;5071039;28;20498;-88
2022/01/29 10:51:56;;;;;;;15.90;6.07;;;10.50;99.90;;;;;;5087830;28;20130;-87
2022/01/29 10:54:23;;;;;;;11.95;5.85;;;10.30;99.90;;;;;;5071448;28;20040;-88
2022/01/29 10:57:04;;;;;;;12.13;4.82;;;10.40;99.90;;;;;;5071191;28;20047;-88
2022/01/29 10:59:33;;;;;;;12.73;5.10;;;10.50;99.90;;;;;;5067673;28;20514;-89
2022/01/29 11:02:02;;;;;;;13.40;4.90;;;10.50;99.90;;;;;;5068084;28;20498;-89
2022/01/29 11:04:29;;;;;;;16.02;5.07;;;10.50;99.90;;;;;;5071445;28;20040;-89
2022/01/29 11:06:58;;;;;;;10.95;4.85;;;10.50;99.90;;;;;;5075643;28;20039;-89
2022/01/29 11:09:25;;;;;;;18.63;5.05;;;10.50;99.90;;;;;;5077073;28;20045;-89
2022/01/29 11:11:51;;;;;;;11.77;4.15;;;10.60;99.90;;;;;;5051110;28;20037;-89
2022/01/29 11:14:19;;;;;;;11.77;4.95;;;10.60;99.90;;;;;;5054165;28;20063;-89
2022/01/29 11:16:46;;;;;;;19.23;6.28;;;10.60;99.90;;;;;;5050811;28;20049;-89
2022/01/29 11:19:15;;;;;;;13.90;5.20;;;10.60;99.90;;;;;;5067991;28;20040;-90
2022/01/29 11:21:42;;;;;;;11.30;4.53;;;10.60;99.90;;;;;;5068534;28;20040;-90
2022/01/29 11:24:09;;;;;;;15.77;5.63;;;10.60;99.90;;;;;;5084505;28;20042;-89
2022/01/29 11:26:36;;;;;;;14.05;4.20;;;10.60;99.90;;;;;;5068431;28;20290;-90
2022/01/29 11:29:21;;;;;;;14.55;5.25;;;10.60;99.90;;;;;;5072289;28;20064;-89
2022/01/29 11:31:47;;;;;;;13.93;4.22;;;10.50;99.90;;;;;;5070050;28;20502;-90
2022/01/29 11:34:12;;;;;;;10.10;4.72;;;10.50;99.90;;;;;;5072119;28;20132;-90
2022/01/29 11:36:47;;;;;;;16.27;5.35;;;10.50;99.90;;;;;;5076519;28;20105;-88
2022/01/29 11:39:30;;;;;;;9.85;4.35;;;10.60;99.90;;;;;;5075079;28;20040;-90
2022/01/29 11:42:11;;;;;;;15.48;4.40;;;10.60;99.90;;;;;;5089899;28;20082;-90
2022/01/29 11:44:37;;;;;;;11.73;4.20;;;10.60;99.90;;;;;;5072301;28;20036;-89
2022/01/29 11:47:23;;;;;;;10.10;3.58;;;10.60;99.90;;;;;;5071651;27;20032;-89
2022/01/29 11:49:50;;;;;;;18.45;4.80;;;10.60;99.90;;;;;;5088228;28;20047;-89
2022/01/29 11:52:24;;;;;;;10.18;4.18;;;10.50;99.90;;;;;;5080529;28;20051;-88
2022/01/29 11:55:05;;;;;;;11.35;3.83;;;10.60;99.90;;;;;;5088231;28;20075;-89
2022/01/29 11:57:31;;;;;;;13.23;3.80;;;10.60;99.90;;;;;;5091359;28;20058;-90
2022/01/29 12:00:36;;;;;;;11.60;3.35;;;10.70;99.90;;;;;;5083910;28;20040;-89
2022/01/29 12:03:01;;;;;;;15.93;3.70;;;10.70;99.90;;;;;;5070147;28;20473;-89
2022/01/29 12:05:31;;;;;;;18.35;4.70;;;10.70;99.90;;;;;;5098909;28;20036;-88
2022/01/29 12:08:16;;;;;;;11.60;3.75;;;10.70;99.90;;;;;;5085161;28;20047;-90
2022/01/29 12:10:52;;;;;;;9.48;3.45;;;10.80;99.90;;;;;;5077732;28;20044;-88
2022/01/29 12:13:18;;;;;;;15.27;4.35;;;10.90;99.90;;;;;;5077868;28;20075;-89
2022/01/29 12:15:43;;;;;;;14.93;4.07;;;10.90;99.90;;;;;;5062267;28;20074;-89
2022/01/29 12:18:27;;;;;;;10.43;3.40;;;10.90;99.90;;;;;;5094787;28;20036;-90
2022/01/29 12:20:53;;;;;;;15.15;4.00;;;10.90;99.90;;;;;;5077836;28;20074;-90
2022/01/29 12:23:18;;;;;;;11.23;3.63;;;10.90;99.90;;;;;;5095182;28;20497;-89
2022/01/29 12:25:55;;;;;;;13.63;4.38;;;11.00;99.90;;;;;;5077443;28;20039;-89
2022/01/29 12:28:21;;;;;;;9.23;3.65;;;11.00;99.90;;;;;;5077650;28;20040;-90
2022/01/29 12:30:47;;;;;;;21.17;7.07;;;11.00;99.90;;;;;;5077360;28;20401;-90
2022/01/29 12:33:16;;;;;;;14.95;4.53;;;11.00;99.90;;;;;;5072559;28;20065;-89
2022/01/29 12:35:53;;;;;;;13.73;3.97;;;11.00;99.90;;;;;;5075483;28;20430;-89
2022/01/29 12:38:36;;;;;;;14.32;4.85;;;11.10;99.90;;;;;;5077784;28;20134;-90
2022/01/29 12:41:13;;;;;;;14.68;3.78;;;11.20;99.90;;;;;;5077284;28;20044;-90
2022/01/29 12:44:04;;;;;;;14.55;4.13;;;11.20;99.90;;;;;;5075972;28;20047;-89
2022/01/29 12:46:30;;;;;;;12.68;3.30;;;11.10;99.90;;;;;;5077466;28;20054;-89
2022/01/29 12:49:05;;;;;;;9.55;3.65;;;11.10;99.90;;;;;;5079883;28;20044;-89